sensor_id;sensor_type;location;lat;lon;timestamp;P1;durP1;ratioP1;P2;durP2;ratioP2
6249;SDS011;3158;52.148;11.568;2022-07-17T00:01:50;4.38;;;0.60;;
6249;SDS011;3158;52.148;11.568;2022-07-17T00:06:51;0.90;;;0.88;;
6249;SDS011;3158;52.148;11.568;2022-07-17T00:11:52;3.60;;;0.57;;
6249;SDS011;3158;52.148;11.568;2022-07-17T00:16:53;4.72;;;0.82;;
6249;SDS011;3158;52.148;11.568;2022-07-17T00:21:54;3.00;;;0.80;;
6249;SDS011;3158;52.148;11.568;2022-07-17T00:26:55;2.65;;;0.70;;
6249;SDS011;3158;52.148;11.568;2022-07-17T00:31:56;7.28;;;0.70;;
6249;SDS011;3158;52.148;11.568;2022-07-17T00:36:57;2.78;;;0.60;;
6249;SDS011;3158;52.148;11.568;2022-07-17T00:41:58;1.70;;;0.75;;
6249;SDS011;3158;52.148;11.568;2022-07-17T00:46:59;1.80;;;0.50;;
6249;SDS011;3158;52.148;11.568;2022-07-17T00:52:00;0.90;;;0.57;;
6249;SDS011;3158;52.148;11.568;2022-07-17T00:57:02;4.85;;;0.77;;
6249;SDS011;3158;52.148;11.568;2022-07-17T01:02:08;1.50;;;0.65;;
6249;SDS011;3158;52.148;11.568;2022-07-17T01:07:10;3.00;;;0.70;;
6249;SDS011;3158;52.148;11.568;2022-07-17T01:12:11;2.42;;;0.80;;
6249;SDS011;3158;52.148;11.568;2022-07-17T01:17:12;1.85;;;0.80;;
6249;SDS011;3158;52.148;11.568;2022-07-17T01:22:13;3.35;;;0.95;;
6249;SDS011;3158;52.148;11.568;2022-07-17T01:27:15;1.20;;;0.73;;
6249;SDS011;3158;52.148;11.568;2022-07-17T01:32:16;1.83;;;0.60;;
6249;SDS011;3158;52.148;11.568;2022-07-17T01:37:17;2.58;;;0.80;;
6249;SDS011;3158;52.148;11.568;2022-07-17T01:42:18;3.25;;;0.93;;
6249;SDS011;3158;52.148;11.568;2022-07-17T01:47:20;0.73;;;0.70;;
6249;SDS011;3158;52.148;11.568;2022-07-17T01:52:22;6.65;;;1.05;;
6249;SDS011;3158;52.148;11.568;2022-07-17T01:57:23;6.85;;;0.98;;
6249;SDS011;3158;52.148;11.568;2022-07-17T02:02:24;1.70;;;0.80;;
6249;SDS011;3158;52.148;11.568;2022-07-17T02:07:26;4.03;;;0.63;;
6249;SDS011;3158;52.148;11.568;2022-07-17T02:12:27;3.35;;;0.93;;
6249;SDS011;3158;52.148;11.568;2022-07-17T02:17:28;2.22;;;0.60;;
6249;SDS011;3158;52.148;11.568;2022-07-17T02:22:29;2.80;;;0.90;;
6249;SDS011;3158;52.148;11.568;2022-07-17T02:27:30;7.00;;;0.70;;
6249;SDS011;3158;52.148;11.568;2022-07-17T02:32:32;4.07;;;0.70;;
6249;SDS011;3158;52.148;11.568;2022-07-17T02:37:33;1.33;;;0.73;;
6249;SDS011;3158;52.148;11.568;2022-07-17T02:42:34;3.35;;;0.80;;
6249;SDS011;3158;52.148;11.568;2022-07-17T02:47:35;3.05;;;1.00;;
6249;SDS011;3158;52.148;11.568;2022-07-17T02:52:37;3.95;;;0.80;;
6249;SDS011;3158;52.148;11.568;2022-07-17T02:57:38;2.75;;;0.75;;
6249;SDS011;3158;52.148;11.568;2022-07-17T03:02:39;4.90;;;1.15;;
6249;SDS011;3158;52.148;11.568;2022-07-17T03:07:41;3.92;;;0.88;;
6249;SDS011;3158;52.148;11.568;2022-07-17T03:12:44;4.15;;;1.25;;
6249;SDS011;3158;52.148;11.568;2022-07-17T03:17:45;1.58;;;1.02;;
6249;SDS011;3158;52.148;11.568;2022-07-17T03:22:46;3.30;;;1.02;;
6249;SDS011;3158;52.148;11.568;2022-07-17T03:27:47;4.82;;;0.95;;
6249;SDS011;3158;52.148;11.568;2022-07-17T03:32:48;2.40;;;1.05;;
6249;SDS011;3158;52.148;11.568;2022-07-17T03:37:49;5.80;;;1.33;;
6249;SDS011;3158;52.148;11.568;2022-07-17T03:42:50;2.30;;;1.20;;
6249;SDS011;3158;52.148;11.568;2022-07-17T03:47:51;3.75;;;1.23;;
6249;SDS011;3158;52.148;11.568;2022-07-17T03:52:52;3.95;;;1.10;;
6249;SDS011;3158;52.148;11.568;2022-07-17T03:57:53;3.50;;;0.90;;
6249;SDS011;3158;52.148;11.568;2022-07-17T04:02:54;6.93;;;1.35;;
6249;SDS011;3158;52.148;11.568;2022-07-17T04:07:55;4.32;;;1.13;;
6249;SDS011;3158;52.148;11.568;2022-07-17T04:12:56;5.30;;;1.08;;
6249;SDS011;3158;52.148;11.568;2022-07-17T04:17:57;6.00;;;1.42;;
6249;SDS011;3158;52.148;11.568;2022-07-17T04:22:58;2.30;;;1.08;;
6249;SDS011;3158;52.148;11.568;2022-07-17T04:27:59;1.83;;;1.20;;
6249;SDS011;3158;52.148;11.568;2022-07-17T04:33:00;6.43;;;1.10;;
6249;SDS011;3158;52.148;11.568;2022-07-17T04:38:03;4.43;;;1.00;;
6249;SDS011;3158;52.148;11.568;2022-07-17T04:43:05;7.35;;;1.23;;
6249;SDS011;3158;52.148;11.568;2022-07-17T04:48:06;5.38;;;1.45;;
6249;SDS011;3158;52.148;11.568;2022-07-17T04:53:07;1.83;;;0.90;;
6249;SDS011;3158;52.148;11.568;2022-07-17T04:58:08;7.65;;;1.60;;
6249;SDS011;3158;52.148;11.568;2022-07-17T05:03:09;1.73;;;0.98;;
6249;SDS011;3158;52.148;11.568;2022-07-17T05:08:11;4.05;;;1.10;;
6249;SDS011;3158;52.148;11.568;2022-07-17T05:13:12;4.45;;;0.98;;
6249;SDS011;3158;52.148;11.568;2022-07-17T05:18:13;5.47;;;1.15;;
6249;SDS011;3158;52.148;11.568;2022-07-17T05:23:14;3.70;;;0.93;;
6249;SDS011;3158;52.148;11.568;2022-07-17T05:28:15;5.00;;;1.00;;
6249;SDS011;3158;52.148;11.568;2022-07-17T05:33:16;4.30;;;1.00;;
6249;SDS011;3158;52.148;11.568;2022-07-17T05:38:17;0.90;;;0.70;;
6249;SDS011;3158;52.148;11.568;2022-07-17T05:43:18;5.05;;;1.08;;
6249;SDS011;3158;52.148;11.568;2022-07-17T05:48:19;2.53;;;0.93;;
6249;SDS011;3158;52.148;11.568;2022-07-17T05:53:20;2.65;;;1.00;;
6249;SDS011;3158;52.148;11.568;2022-07-17T05:58:21;3.53;;;1.08;;
6249;SDS011;3158;52.148;11.568;2022-07-17T06:03:23;8.70;;;1.05;;
6249;SDS011;3158;52.148;11.568;2022-07-17T06:08:24;7.28;;;0.90;;
6249;SDS011;3158;52.148;11.568;2022-07-17T06:13:25;4.00;;;1.35;;
6249;SDS011;3158;52.148;11.568;2022-07-17T06:18:26;7.25;;;1.48;;
6249;SDS011;3158;52.148;11.568;2022-07-17T06:23:27;2.88;;;0.80;;
6249;SDS011;3158;52.148;11.568;2022-07-17T06:28:28;5.57;;;0.95;;
6249;SDS011;3158;52.148;11.568;2022-07-17T06:33:29;4.97;;;0.82;;
6249;SDS011;3158;52.148;11.568;2022-07-17T06:38:31;4.85;;;1.00;;
6249;SDS011;3158;52.148;11.568;2022-07-17T06:43:33;3.42;;;0.77;;
6249;SDS011;3158;52.148;11.568;2022-07-17T06:48:34;7.05;;;1.17;;
6249;SDS011;3158;52.148;11.568;2022-07-17T06:53:35;7.25;;;1.00;;
6249;SDS011;3158;52.148;11.568;2022-07-17T06:58:36;3.25;;;0.82;;
6249;SDS011;3158;52.148;11.568;2022-07-17T07:03:37;2.03;;;0.73;;
6249;SDS011;3158;52.148;11.568;2022-07-17T07:08:38;3.15;;;0.82;;
6249;SDS011;3158;52.148;11.568;2022-07-17T07:13:39;3.05;;;0.70;;
6249;SDS011;3158;52.148;11.568;2022-07-17T07:18:41;3.35;;;0.93;;
6249;SDS011;3158;52.148;11.568;2022-07-17T07:23:42;6.43;;;1.05;;
6249;SDS011;3158;52.148;11.568;2022-07-17T07:28:43;2.38;;;0.88;;
6249;SDS011;3158;52.148;11.568;2022-07-17T07:34:02;2.35;;;1.10;;
6249;SDS011;3158;52.148;11.568;2022-07-17T07:39:03;2.13;;;1.10;;
6249;SDS011;3158;52.148;11.568;2022-07-17T07:44:04;1.80;;;0.90;;
6249;SDS011;3158;52.148;11.568;2022-07-17T07:49:05;7.65;;;0.80;;
6249;SDS011;3158;52.148;11.568;2022-07-17T07:54:06;5.35;;;0.70;;
6249;SDS011;3158;52.148;11.568;2022-07-17T07:59:08;4.43;;;1.17;;
6249;SDS011;3158;52.148;11.568;2022-07-17T08:04:09;2.33;;;0.70;;
6249;SDS011;3158;52.148;11.568;2022-07-17T08:09:10;4.60;;;0.82;;
6249;SDS011;3158;52.148;11.568;2022-07-17T08:14:11;7.30;;;0.95;;
6249;SDS011;3158;52.148;11.568;2022-07-17T08:19:12;4.93;;;0.80;;
6249;SDS011;3158;52.148;11.568;2022-07-17T08:24:13;4.45;;;0.88;;
6249;SDS011;3158;52.148;11.568;2022-07-17T08:29:14;3.55;;;0.55;;
6249;SDS011;3158;52.148;11.568;2022-07-17T08:34:16;3.88;;;0.80;;
6249;SDS011;3158;52.148;11.568;2022-07-17T08:39:17;3.30;;;0.90;;
6249;SDS011;3158;52.148;11.568;2022-07-17T08:44:18;5.22;;;0.75;;
6249;SDS011;3158;52.148;11.568;2022-07-17T08:49:20;1.27;;;0.70;;
6249;SDS011;3158;52.148;11.568;2022-07-17T08:54:22;5.55;;;0.80;;
6249;SDS011;3158;52.148;11.568;2022-07-17T08:59:23;3.40;;;0.90;;
6249;SDS011;3158;52.148;11.568;2022-07-17T09:04:24;6.20;;;1.40;;
6249;SDS011;3158;52.148;11.568;2022-07-17T09:09:25;3.28;;;0.80;;
6249;SDS011;3158;52.148;11.568;2022-07-17T09:14:38;3.72;;;0.75;;
6249;SDS011;3158;52.148;11.568;2022-07-17T09:19:40;4.85;;;0.68;;
6249;SDS011;3158;52.148;11.568;2022-07-17T09:29:49;5.93;;;0.90;;
6249;SDS011;3158;52.148;11.568;2022-07-17T09:34:52;5.25;;;0.68;;
6249;SDS011;3158;52.148;11.568;2022-07-17T09:39:54;5.55;;;0.77;;
6249;SDS011;3158;52.148;11.568;2022-07-17T09:44:59;2.30;;;0.82;;
6249;SDS011;3158;52.148;11.568;2022-07-17T09:50:01;3.38;;;0.60;;
6249;SDS011;3158;52.148;11.568;2022-07-17T09:55:03;2.30;;;0.80;;
6249;SDS011;3158;52.148;11.568;2022-07-17T10:00:05;4.03;;;0.50;;
6249;SDS011;3158;52.148;11.568;2022-07-17T10:05:15;4.57;;;0.65;;
6249;SDS011;3158;52.148;11.568;2022-07-17T10:10:17;2.78;;;0.50;;
6249;SDS011;3158;52.148;11.568;2022-07-17T10:15:18;2.92;;;0.90;;
6249;SDS011;3158;52.148;11.568;2022-07-17T10:20:24;3.47;;;0.57;;
6249;SDS011;3158;52.148;11.568;2022-07-17T10:25:26;3.13;;;1.00;;
6249;SDS011;3158;52.148;11.568;2022-07-17T10:30:28;2.80;;;0.55;;
6249;SDS011;3158;52.148;11.568;2022-07-17T10:35:41;3.33;;;0.40;;
6249;SDS011;3158;52.148;11.568;2022-07-17T10:40:43;1.05;;;0.47;;
6249;SDS011;3158;52.148;11.568;2022-07-17T10:45:45;1.13;;;0.50;;
6249;SDS011;3158;52.148;11.568;2022-07-17T10:50:48;4.22;;;0.60;;
6249;SDS011;3158;52.148;11.568;2022-07-17T10:55:56;1.73;;;0.60;;
6249;SDS011;3158;52.148;11.568;2022-07-17T11:11:16;2.97;;;0.55;;
6249;SDS011;3158;52.148;11.568;2022-07-17T11:16:27;3.20;;;0.68;;
6249;SDS011;3158;52.148;11.568;2022-07-17T11:21:28;2.35;;;0.80;;
6249;SDS011;3158;52.148;11.568;2022-07-17T11:26:31;1.58;;;0.70;;
6249;SDS011;3158;52.148;11.568;2022-07-17T11:31:32;0.52;;;0.50;;
6249;SDS011;3158;52.148;11.568;2022-07-17T11:36:34;2.67;;;0.70;;
6249;SDS011;3158;52.148;11.568;2022-07-17T11:41:53;1.40;;;0.65;;
6249;SDS011;3158;52.148;11.568;2022-07-17T11:46:54;1.65;;;0.57;;
6249;SDS011;3158;52.148;11.568;2022-07-17T11:51:56;2.45;;;0.50;;
6249;SDS011;3158;52.148;11.568;2022-07-17T11:56:58;1.40;;;0.57;;
6249;SDS011;3158;52.148;11.568;2022-07-17T12:02:08;5.28;;;0.63;;
6249;SDS011;3158;52.148;11.568;2022-07-17T12:07:09;4.18;;;0.52;;
6249;SDS011;3158;52.148;11.568;2022-07-17T12:12:20;1.23;;;0.68;;
6249;SDS011;3158;52.148;11.568;2022-07-17T12:17:22;1.02;;;0.50;;
6249;SDS011;3158;52.148;11.568;2022-07-17T12:22:23;2.53;;;0.60;;
6249;SDS011;3158;52.148;11.568;2022-07-17T12:27:24;1.77;;;0.47;;
6249;SDS011;3158;52.148;11.568;2022-07-17T12:32:25;1.88;;;0.52;;
6249;SDS011;3158;52.148;11.568;2022-07-17T12:37:26;2.15;;;0.55;;
6249;SDS011;3158;52.148;11.568;2022-07-17T12:42:34;2.45;;;0.60;;
6249;SDS011;3158;52.148;11.568;2022-07-17T12:47:35;3.65;;;0.60;;
6249;SDS011;3158;52.148;11.568;2022-07-17T12:52:36;2.08;;;0.57;;
6249;SDS011;3158;52.148;11.568;2022-07-17T12:57:37;1.58;;;0.60;;
6249;SDS011;3158;52.148;11.568;2022-07-17T13:02:39;1.85;;;0.40;;
6249;SDS011;3158;52.148;11.568;2022-07-17T13:07:40;3.13;;;0.60;;
6249;SDS011;3158;52.148;11.568;2022-07-17T13:12:44;1.15;;;0.45;;
6249;SDS011;3158;52.148;11.568;2022-07-17T13:17:45;2.85;;;0.60;;
6249;SDS011;3158;52.148;11.568;2022-07-17T13:22:46;1.50;;;0.40;;
6249;SDS011;3158;52.148;11.568;2022-07-17T13:27:47;3.22;;;0.30;;
6249;SDS011;3158;52.148;11.568;2022-07-17T13:32:48;0.90;;;0.30;;
6249;SDS011;3158;52.148;11.568;2022-07-17T13:37:50;4.13;;;0.60;;
6249;SDS011;3158;52.148;11.568;2022-07-17T13:42:51;2.50;;;0.40;;
6249;SDS011;3158;52.148;11.568;2022-07-17T13:47:52;1.63;;;0.40;;
6249;SDS011;3158;52.148;11.568;2022-07-17T13:52:54;4.32;;;0.47;;
6249;SDS011;3158;52.148;11.568;2022-07-17T13:57:56;1.02;;;0.50;;
6249;SDS011;3158;52.148;11.568;2022-07-17T14:02:57;2.25;;;0.52;;
6249;SDS011;3158;52.148;11.568;2022-07-17T14:07:58;2.15;;;0.68;;
6249;SDS011;3158;52.148;11.568;2022-07-17T14:13:00;2.30;;;0.40;;
6249;SDS011;3158;52.148;11.568;2022-07-17T14:18:01;1.45;;;0.50;;
6249;SDS011;3158;52.148;11.568;2022-07-17T14:23:02;3.03;;;0.65;;
6249;SDS011;3158;52.148;11.568;2022-07-17T14:28:03;2.30;;;0.47;;
6249;SDS011;3158;52.148;11.568;2022-07-17T14:33:05;1.65;;;0.40;;
6249;SDS011;3158;52.148;11.568;2022-07-17T14:38:06;1.98;;;0.50;;
6249;SDS011;3158;52.148;11.568;2022-07-17T14:43:07;4.20;;;0.60;;
6249;SDS011;3158;52.148;11.568;2022-07-17T14:48:08;1.25;;;0.50;;
6249;SDS011;3158;52.148;11.568;2022-07-17T14:53:09;0.55;;;0.50;;
6249;SDS011;3158;52.148;11.568;2022-07-17T14:58:10;2.35;;;0.40;;
6249;SDS011;3158;52.148;11.568;2022-07-17T15:03:11;1.98;;;0.50;;
6249;SDS011;3158;52.148;11.568;2022-07-17T15:08:12;2.75;;;0.52;;
6249;SDS011;3158;52.148;11.568;2022-07-17T15:13:14;1.33;;;0.40;;
6249;SDS011;3158;52.148;11.568;2022-07-17T15:18:15;0.73;;;0.50;;
6249;SDS011;3158;52.148;11.568;2022-07-17T15:23:16;1.45;;;0.40;;
6249;SDS011;3158;52.148;11.568;2022-07-17T15:28:17;3.13;;;0.70;;
6249;SDS011;3158;52.148;11.568;2022-07-17T15:33:19;1.42;;;0.50;;
6249;SDS011;3158;52.148;11.568;2022-07-17T15:38:20;1.52;;;0.50;;
6249;SDS011;3158;52.148;11.568;2022-07-17T15:43:21;0.90;;;0.50;;
6249;SDS011;3158;52.148;11.568;2022-07-17T15:48:22;1.08;;;0.90;;
6249;SDS011;3158;52.148;11.568;2022-07-17T15:53:23;1.85;;;0.50;;
6249;SDS011;3158;52.148;11.568;2022-07-17T15:58:24;0.98;;;0.47;;
6249;SDS011;3158;52.148;11.568;2022-07-17T16:03:25;2.05;;;0.50;;
6249;SDS011;3158;52.148;11.568;2022-07-17T16:08:26;2.20;;;0.50;;
6249;SDS011;3158;52.148;11.568;2022-07-17T16:13:27;0.77;;;0.40;;
6249;SDS011;3158;52.148;11.568;2022-07-17T16:18:29;0.50;;;0.40;;
6249;SDS011;3158;52.148;11.568;2022-07-17T16:23:30;3.13;;;0.75;;
6249;SDS011;3158;52.148;11.568;2022-07-17T16:28:31;2.10;;;0.40;;
6249;SDS011;3158;52.148;11.568;2022-07-17T16:33:32;1.13;;;0.43;;
6249;SDS011;3158;52.148;11.568;2022-07-17T16:38:33;1.55;;;0.50;;
6249;SDS011;3158;52.148;11.568;2022-07-17T16:43:34;2.00;;;1.00;;
6249;SDS011;3158;52.148;11.568;2022-07-17T16:48:35;0.30;;;0.30;;
6249;SDS011;3158;52.148;11.568;2022-07-17T16:53:37;2.25;;;0.55;;
6249;SDS011;3158;52.148;11.568;2022-07-17T16:58:38;0.63;;;0.50;;
6249;SDS011;3158;52.148;11.568;2022-07-17T17:03:39;0.60;;;0.40;;
6249;SDS011;3158;52.148;11.568;2022-07-17T17:08:41;1.77;;;0.50;;
6249;SDS011;3158;52.148;11.568;2022-07-17T17:13:42;0.93;;;0.60;;
6249;SDS011;3158;52.148;11.568;2022-07-17T17:18:43;1.80;;;0.50;;
6249;SDS011;3158;52.148;11.568;2022-07-17T17:23:44;3.13;;;0.98;;
6249;SDS011;3158;52.148;11.568;2022-07-17T17:28:46;1.63;;;1.35;;
6249;SDS011;3158;52.148;11.568;2022-07-17T17:33:47;1.33;;;0.40;;
6249;SDS011;3158;52.148;11.568;2022-07-17T17:38:48;1.60;;;0.68;;
6249;SDS011;3158;52.148;11.568;2022-07-17T17:43:49;0.93;;;0.60;;
6249;SDS011;3158;52.148;11.568;2022-07-17T17:48:50;0.52;;;0.50;;
6249;SDS011;3158;52.148;11.568;2022-07-17T17:53:51;2.80;;;0.50;;
6249;SDS011;3158;52.148;11.568;2022-07-17T17:58:52;1.48;;;0.50;;
6249;SDS011;3158;52.148;11.568;2022-07-17T18:03:53;0.70;;;0.40;;
6249;SDS011;3158;52.148;11.568;2022-07-17T18:08:54;1.13;;;0.60;;
6249;SDS011;3158;52.148;11.568;2022-07-17T18:13:56;0.70;;;0.68;;
6249;SDS011;3158;52.148;11.568;2022-07-17T18:18:57;2.53;;;0.40;;
6249;SDS011;3158;52.148;11.568;2022-07-17T18:23:58;0.75;;;0.75;;
6249;SDS011;3158;52.148;11.568;2022-07-17T18:28:59;2.60;;;0.70;;
6249;SDS011;3158;52.148;11.568;2022-07-17T18:34:01;4.25;;;0.80;;
6249;SDS011;3158;52.148;11.568;2022-07-17T18:39:02;1.58;;;0.70;;
6249;SDS011;3158;52.148;11.568;2022-07-17T18:44:03;2.95;;;0.50;;
6249;SDS011;3158;52.148;11.568;2022-07-17T18:49:04;0.85;;;0.50;;
6249;SDS011;3158;52.148;11.568;2022-07-17T18:54:05;2.85;;;0.60;;
6249;SDS011;3158;52.148;11.568;2022-07-17T18:59:06;6.07;;;0.52;;
6249;SDS011;3158;52.148;11.568;2022-07-17T19:04:07;2.92;;;0.70;;
6249;SDS011;3158;52.148;11.568;2022-07-17T19:09:08;8.23;;;1.92;;
6249;SDS011;3158;52.148;11.568;2022-07-17T19:14:09;11.88;;;1.20;;
6249;SDS011;3158;52.148;11.568;2022-07-17T19:19:10;19.40;;;1.13;;
6249;SDS011;3158;52.148;11.568;2022-07-17T19:24:11;11.48;;;2.35;;
6249;SDS011;3158;52.148;11.568;2022-07-17T19:29:12;16.33;;;3.72;;
6249;SDS011;3158;52.148;11.568;2022-07-17T19:34:13;11.70;;;1.50;;
6249;SDS011;3158;52.148;11.568;2022-07-17T19:39:14;14.10;;;1.23;;
6249;SDS011;3158;52.148;11.568;2022-07-17T19:44:16;27.65;;;1.50;;
6249;SDS011;3158;52.148;11.568;2022-07-17T19:49:17;14.95;;;1.55;;
6249;SDS011;3158;52.148;11.568;2022-07-17T19:54:18;13.30;;;1.10;;
6249;SDS011;3158;52.148;11.568;2022-07-17T19:59:19;9.60;;;1.67;;
6249;SDS011;3158;52.148;11.568;2022-07-17T20:04:21;8.98;;;1.02;;
6249;SDS011;3158;52.148;11.568;2022-07-17T20:09:22;11.52;;;1.60;;
6249;SDS011;3158;52.148;11.568;2022-07-17T20:14:23;7.45;;;0.90;;
6249;SDS011;3158;52.148;11.568;2022-07-17T20:19:24;6.43;;;1.00;;
6249;SDS011;3158;52.148;11.568;2022-07-17T20:24:25;1.92;;;0.68;;
6249;SDS011;3158;52.148;11.568;2022-07-17T20:29:26;2.40;;;1.08;;
6249;SDS011;3158;52.148;11.568;2022-07-17T20:34:27;4.47;;;1.25;;
6249;SDS011;3158;52.148;11.568;2022-07-17T20:39:28;5.93;;;1.10;;
6249;SDS011;3158;52.148;11.568;2022-07-17T20:44:29;1.80;;;0.88;;
6249;SDS011;3158;52.148;11.568;2022-07-17T20:49:31;1.40;;;0.60;;
6249;SDS011;3158;52.148;11.568;2022-07-17T20:54:32;1.08;;;0.70;;
6249;SDS011;3158;52.148;11.568;2022-07-17T20:59:33;4.45;;;0.90;;
6249;SDS011;3158;52.148;11.568;2022-07-17T21:04:34;2.47;;;0.98;;
6249;SDS011;3158;52.148;11.568;2022-07-17T21:09:35;1.85;;;0.88;;
6249;SDS011;3158;52.148;11.568;2022-07-17T21:14:36;6.45;;;0.68;;
6249;SDS011;3158;52.148;11.568;2022-07-17T21:19:37;3.13;;;0.70;;
6249;SDS011;3158;52.148;11.568;2022-07-17T21:24:38;2.22;;;0.80;;
6249;SDS011;3158;52.148;11.568;2022-07-17T21:29:39;3.45;;;0.88;;
6249;SDS011;3158;52.148;11.568;2022-07-17T21:34:40;1.92;;;0.80;;
6249;SDS011;3158;52.148;11.568;2022-07-17T21:39:41;1.98;;;0.70;;
6249;SDS011;3158;52.148;11.568;2022-07-17T21:44:42;1.50;;;0.70;;
6249;SDS011;3158;52.148;11.568;2022-07-17T21:49:43;3.03;;;1.23;;
6249;SDS011;3158;52.148;11.568;2022-07-17T21:54:44;3.30;;;0.93;;
6249;SDS011;3158;52.148;11.568;2022-07-17T21:59:46;3.75;;;0.80;;
6249;SDS011;3158;52.148;11.568;2022-07-17T22:04:47;0.60;;;0.43;;
6249;SDS011;3158;52.148;11.568;2022-07-17T22:09:48;2.28;;;0.50;;
6249;SDS011;3158;52.148;11.568;2022-07-17T22:14:49;0.50;;;0.50;;
6249;SDS011;3158;52.148;11.568;2022-07-17T22:19:50;1.70;;;0.55;;
6249;SDS011;3158;52.148;11.568;2022-07-17T22:24:52;1.95;;;0.50;;
6249;SDS011;3158;52.148;11.568;2022-07-17T22:29:53;1.73;;;0.75;;
6249;SDS011;3158;52.148;11.568;2022-07-17T22:34:55;3.30;;;0.60;;
6249;SDS011;3158;52.148;11.568;2022-07-17T22:39:57;1.10;;;0.60;;
6249;SDS011;3158;52.148;11.568;2022-07-17T22:44:58;3.30;;;0.70;;
6249;SDS011;3158;52.148;11.568;2022-07-17T22:49:59;0.98;;;0.88;;
6249;SDS011;3158;52.148;11.568;2022-07-17T22:55:00;1.67;;;0.65;;
6249;SDS011;3158;52.148;11.568;2022-07-17T23:00:01;5.43;;;0.65;;
6249;SDS011;3158;52.148;11.568;2022-07-17T23:05:02;3.78;;;0.80;;
6249;SDS011;3158;52.148;11.568;2022-07-17T23:10:04;2.53;;;0.70;;
6249;SDS011;3158;52.148;11.568;2022-07-17T23:15:05;2.60;;;0.70;;
6249;SDS011;3158;52.148;11.568;2022-07-17T23:20:06;1.65;;;0.60;;
6249;SDS011;3158;52.148;11.568;2022-07-17T23:25:08;1.75;;;0.70;;
6249;SDS011;3158;52.148;11.568;2022-07-17T23:30:09;1.88;;;0.80;;
6249;SDS011;3158;52.148;11.568;2022-07-17T23:35:10;5.78;;;1.10;;
6249;SDS011;3158;52.148;11.568;2022-07-17T23:40:11;1.95;;;0.70;;
6249;SDS011;3158;52.148;11.568;2022-07-17T23:45:13;2.67;;;0.65;;
6249;SDS011;3158;52.148;11.568;2022-07-17T23:50:14;5.35;;;0.93;;
6249;SDS011;3158;52.148;11.568;2022-07-17T23:55:15;2.20;;;0.80;;
